CheckWX is a tool to help pilots better visualize weather data.  It is not intended as a substitute for an official pre-flight weather briefing.

01:18:47 UTC

SBTT TAF
Tabatinga Airport
Tabatinga, Brazil
TAF SBTT 232200Z 2400/2424 00000KT 9999 FEW020 TN22/2409Z TX29/2419Z BECMG 2409/2411 31005KT BKN006 BECMG 2415/2417 SCT020 FEW025TCU PROB30 TEMPO 2420/2423 TS SCT020 FEW025CB RMK PEM

Feb-24@
00:00 UTC

Feb-24 @ 00:00 UTC

Feb-24@
09:00 UTC

Feb-24 @ 09:00 UTC

TAF SBTT 232200Z 2400/2424 00000KT 9999 FEW020 TN22/2409Z TX29/2419Z
Cloud Levels
  • Few at 2,000' AGL

Feb-24@
09:00 UTC

Feb-24 @ 09:00 UTC

Feb-24@
15:00 UTC

Feb-24 @ 15:00 UTC

BECMG 2409/2411 31005KT BKN006

Becoming

Becoming Conditions expected by Sun, Feb 24, 2019 @ 11:00 UTC

Wind
  • 310° at 5 KTS
Cloud Levels
  • Broken at 600' AGL

Feb-24@
15:00 UTC

Feb-24 @ 15:00 UTC

Feb-25@
00:00 UTC

Feb-25 @ 00:00 UTC

BECMG 2415/2417 SCT020 FEW025TCU

Becoming

Becoming Conditions expected by Sun, Feb 24, 2019 @ 17:00 UTC

Wind
  • 310° at 5 KTS
Cloud Levels
  • Scattered at 2,000' AGL
  • Few at 2,500' AGL

Feb-24@
20:00 UTC

Feb-24 @ 20:00 UTC

Feb-24@
23:00 UTC

Feb-24 @ 23:00 UTC

PROB30 TEMPO 2420/2423 TS SCT020 FEW025CB RMK PEM

Temporary - 30% Likelihood

Temporary - 30% Likelihood during this time.

Conditions
Thunderstorm
Cloud Levels
  • Scattered at 2,000' AGL
  • Few at 2,500' AGL